Time;durP1;ratioP1;P1;durP2;ratioP2;P2;SDS_P1;SDS_P2;PMS_P1;PMS_P2;Temp;Humidity;BMP_temperature;BMP_pressure;BME280_temperature;BME280_humidity;BME280_pressure;Samples;Min_cycle;Max_cycle;Signal;HPM_P1;HPM_P2
2024/03/25 00:01:15;;;;;;;18.63;7.22;;;;;;;5.03;88.08;100243.69;5054089;28;20049;-79
2024/03/25 00:03:41;;;;;;;26.05;7.85;;;;;;;4.93;88.32;100228.72;5057106;28;20144;-79
2024/03/25 00:06:09;;;;;;;21.05;8.48;;;;;;;4.82;88.92;100222.44;5056528;28;20076;-78
2024/03/25 00:08:35;;;;;;;29.20;11.35;;;;;;;4.79;89.42;100235.75;5055963;28;20460;-77
2024/03/25 00:11:01;;;;;;;30.77;10.55;;;;;;;4.79;89.19;100243.63;5054646;28;20088;-78
2024/03/25 00:13:32;;;;;;;30.88;10.93;;;;;;;4.73;89.40;100249.31;5055871;28;20115;-82
2024/03/25 00:15:59;;;;;;;26.63;9.98;;;;;;;4.68;89.88;100250.53;5054575;28;20049;-77
2024/03/25 00:18:25;;;;;;;31.08;11.80;;;;;;;4.62;90.62;100246.56;5056167;28;20102;-79
2024/03/25 00:20:52;;;;;;;25.10;9.65;;;;;;;4.63;90.52;100252.66;5055284;28;20049;-79
2024/03/25 00:23:20;;;;;;;32.90;11.60;;;;;;;4.67;90.33;100254.13;5055920;28;20053;-79
2024/03/25 00:25:47;;;;;;;24.05;11.70;;;;;;;4.66;90.56;100252.44;5052048;28;20053;-79
2024/03/25 00:28:13;;;;;;;26.27;10.23;;;;;;;4.70;90.12;100249.50;5056848;28;20163;-79
2024/03/25 00:30:39;;;;;;;26.02;9.65;;;;;;;4.67;90.20;100244.47;5056668;28;20080;-80
2024/03/25 00:33:06;;;;;;;22.10;9.43;;;;;;;4.67;90.13;100252.34;5055117;28;20332;-80
2024/03/25 00:35:33;;;;;;;20.45;8.60;;;;;;;4.72;89.80;100242.38;5047885;28;20048;-79
2024/03/25 00:38:05;;;;;;;21.55;8.95;;;;;;;4.69;90.52;100239.97;5057213;28;20519;-80
2024/03/25 00:43:29;;;;;;;29.80;8.57;;;;;;;4.76;89.46;100224.66;5044812;28;20057;-80
2024/03/25 00:46:04;;;;;;;21.10;8.13;;;;;;;4.88;89.53;100233.44;5051067;28;20531;-80
2024/03/25 00:48:37;;;;;;;22.42;7.13;;;;;;;4.80;89.38;100220.88;5052146;28;20052;-80
2024/03/25 00:51:05;;;;;;;17.42;6.63;;;;;;;4.73;89.38;100223.09;5053224;28;20111;-79
2024/03/25 00:53:32;;;;;;;19.60;7.13;;;;;;;4.76;89.40;100224.66;5049005;28;20150;-78
2024/03/25 00:55:59;;;;;;;24.60;7.05;;;;;;;4.74;89.33;100219.53;5044737;28;20565;-79
2024/03/25 00:58:26;;;;;;;19.80;6.80;;;;;;;4.62;89.81;100212.50;5052849;28;20063;-78
2024/03/25 01:00:52;;;;;;;27.27;7.13;;;;;;;4.84;89.33;100243.31;5052163;28;20547;-79
2024/03/25 01:03:18;;;;;;;19.92;7.13;;;;;;;4.73;89.51;100222.22;5045078;28;20041;-79
2024/03/25 01:05:46;;;;;;;18.10;7.07;;;;;;;4.88;88.83;100218.56;5050339;28;20080;-78
2024/03/25 01:08:14;;;;;;;28.33;6.72;;;;;;;4.87;88.82;100237.84;5052384;28;20044;-78
2024/03/25 01:10:40;;;;;;;22.55;7.65;;;;;;;4.85;89.16;100231.03;5053379;28;20069;-78
2024/03/25 01:13:08;;;;;;;19.30;7.45;;;;;;;4.85;88.40;100237.09;5053576;28;20593;-78
2024/03/25 01:15:33;;;;;;;18.13;6.47;;;;;;;4.90;88.55;100235.00;5045226;28;20057;-78
2024/03/25 01:18:00;;;;;;;22.50;7.65;;;;;;;4.93;88.36;100244.44;5053819;28;20110;-79
2024/03/25 01:20:26;;;;;;;25.85;7.10;;;;;;;4.87;88.32;100244.88;5052353;28;20086;-79
2024/03/25 01:22:52;;;;;;;23.20;7.82;;;;;;;4.94;87.67;100236.47;5049201;28;20102;-79
2024/03/25 01:25:18;;;;;;;23.15;7.28;;;;;;;4.92;87.97;100238.38;5054487;28;20529;-79
2024/03/25 01:27:44;;;;;;;18.05;6.43;;;;;;;5.02;87.73;100243.81;5064468;28;20052;-79
2024/03/25 01:30:13;;;;;;;21.92;6.30;;;;;;;4.99;87.72;100242.22;5061444;28;20087;-78
2024/03/25 01:32:40;;;;;;;24.10;8.40;;;;;;;4.99;87.93;100239.59;5062081;28;20392;-79
2024/03/25 01:35:06;;;;;;;19.45;6.75;;;;;;;4.90;88.39;100252.53;5069398;28;20559;-79
2024/03/25 01:37:33;;;;;;;21.45;6.82;;;;;;;4.81;89.18;100246.13;5060265;28;20526;-79
2024/03/25 01:39:59;;;;;;;23.38;7.32;;;;;;;4.79;88.67;100238.38;5057312;28;20136;-79
2024/03/25 01:42:26;;;;;;;25.50;7.47;;;;;;;4.74;88.92;100245.72;5057142;28;20112;-79
2024/03/25 01:44:53;;;;;;;20.85;7.35;;;;;;;4.73;89.09;100244.06;5060554;28;20049;-80
2024/03/25 01:47:22;;;;;;;21.40;6.85;;;;;;;4.73;88.74;100251.06;5060802;28;20132;-80
2024/03/25 01:49:49;;;;;;;24.00;7.25;;;;;;;4.78;88.41;100241.13;5058672;28;20200;-80
2024/03/25 01:52:17;;;;;;;22.88;6.80;;;;;;;4.79;87.91;100242.78;5058365;28;20483;-80
2024/03/25 01:54:42;;;;;;;25.33;6.38;;;;;;;4.77;87.96;100244.66;5055011;28;20052;-79
2024/03/25 01:57:10;;;;;;;19.48;6.65;;;;;;;4.62;88.78;100246.56;5059394;28;20107;-80
2024/03/25 01:59:36;;;;;;;20.55;6.28;;;;;;;4.53;89.00;100240.19;5053407;28;20052;-80
2024/03/25 02:02:03;;;;;;;22.30;7.43;;;;;;;4.60;88.63;100239.75;5059824;28;20554;-80
2024/03/25 02:04:31;;;;;;;21.15;7.38;;;;;;;4.52;88.54;100241.13;5058154;28;20117;-81
2024/03/25 02:06:59;;;;;;;22.55;6.47;;;;;;;4.53;89.15;100241.97;5059254;28;20052;-80
2024/03/25 02:09:26;;;;;;;22.20;6.28;;;;;;;4.47;88.79;100250.25;5060173;28;20109;-79
2024/03/25 02:11:54;;;;;;;23.35;6.80;;;;;;;4.52;88.73;100258.63;5059233;28;20060;-80
2024/03/25 02:14:20;;;;;;;20.83;6.78;;;;;;;4.52;89.29;100242.91;5057583;28;20546;-81
2024/03/25 02:16:47;;;;;;;20.17;6.28;;;;;;;4.66;88.60;100257.69;5058126;28;20052;-81
2024/03/25 02:19:15;;;;;;;22.50;6.15;;;;;;;4.71;88.04;100248.56;5058328;28;20142;-81
2024/03/25 02:21:43;;;;;;;21.27;5.82;;;;;;;4.81;87.49;100256.63;5057408;28;20037;-81
2024/03/25 02:24:10;;;;;;;24.73;6.13;;;;;;;4.75;87.94;100243.94;5057796;28;20045;-80
2024/03/25 02:26:38;;;;;;;19.80;6.35;;;;;;;4.80;87.53;100247.91;5059210;28;20091;-81
2024/03/25 02:29:04;;;;;;;22.75;6.05;;;;;;;4.75;87.79;100251.81;5054296;28;20050;-81
2024/03/25 02:31:30;;;;;;;17.35;5.63;;;;;;;4.78;87.62;100260.31;5056613;28;20098;-81
2024/03/25 02:33:56;;;;;;;30.33;6.32;;;;;;;4.78;87.39;100256.84;5055383;28;20223;-81
2024/03/25 02:36:23;;;;;;;19.77;5.82;;;;;;;4.75;87.61;100247.41;5055193;28;20087;-81
2024/03/25 02:38:48;;;;;;;17.88;5.75;;;;;;;4.73;87.79;100245.81;5056032;28;20052;-81
2024/03/25 02:41:15;;;;;;;19.17;5.35;;;;;;;4.81;87.89;100243.50;5059445;28;20049;-81
2024/03/25 02:43:42;;;;;;;22.10;6.10;;;;;;;4.80;87.28;100252.31;5055235;28;20042;-77
2024/03/25 02:46:09;;;;;;;18.52;5.70;;;;;;;4.80;87.27;100247.91;5059163;28;20510;-80
2024/03/25 02:48:35;;;;;;;24.63;6.22;;;;;;;4.78;87.40;100235.88;5057719;28;20468;-80
2024/03/25 02:51:01;;;;;;;19.10;5.65;;;;;;;4.83;87.27;100244.25;5051195;28;20080;-80
2024/03/25 02:53:27;;;;;;;23.35;5.90;;;;;;;4.83;87.21;100233.78;5059253;28;20045;-80
2024/03/25 02:55:53;;;;;;;14.05;5.30;;;;;;;4.82;87.06;100240.81;5058253;28;20098;-80
2024/03/25 02:58:19;;;;;;;21.75;7.65;;;;;;;4.75;87.14;100236.09;5054946;28;20084;-79
2024/03/25 03:00:49;;;;;;;22.23;5.93;;;;;;;4.81;86.65;100238.28;5056680;28;20049;-79
2024/03/25 03:03:14;;;;;;;22.65;6.57;;;;;;;4.76;87.14;100232.50;5047676;28;20041;-80
2024/03/25 03:05:41;;;;;;;22.60;8.18;;;;;;;4.66;87.68;100237.56;5050215;28;20096;-80
2024/03/25 03:08:06;;;;;;;29.23;7.53;;;;;;;4.69;87.99;100233.91;5060981;28;20448;-80
2024/03/25 03:10:33;;;;;;;20.33;6.72;;;;;;;4.64;88.11;100225.50;5052987;28;20087;-80
2024/03/25 03:12:59;;;;;;;19.45;6.57;;;;;;;4.66;88.04;100223.63;5060297;28;20128;-80
2024/03/25 03:15:25;;;;;;;24.95;6.55;;;;;;;4.53;88.12;100231.47;5052617;28;20103;-79
2024/03/25 03:17:52;;;;;;;23.08;6.97;;;;;;;4.45;88.98;100225.94;5059013;28;20064;-79
2024/03/25 03:20:19;;;;;;;26.00;6.75;;;;;;;4.39;89.36;100223.75;5060089;28;20083;-78
2024/03/25 03:22:44;;;;;;;23.23;7.18;;;;;;;4.43;88.81;100233.06;5059084;28;20112;-80
2024/03/25 03:25:11;;;;;;;25.15;6.65;;;;;;;4.33;89.05;100225.00;5058356;28;20076;-80
2024/03/25 03:27:37;;;;;;;24.00;8.68;;;;;;;4.28;89.73;100227.06;5052150;28;20106;-79
2024/03/25 03:30:04;;;;;;;21.67;6.80;;;;;;;4.23;89.30;100222.13;5057611;28;20060;-79
2024/03/25 03:32:29;;;;;;;22.15;7.15;;;;;;;4.21;89.67;100223.22;5053164;28;20115;-80
2024/03/25 03:34:57;;;;;;;25.35;6.97;;;;;;;4.11;89.99;100220.38;5059749;28;20089;-79
2024/03/25 03:37:23;;;;;;;30.95;7.38;;;;;;;4.13;90.39;100220.25;5053244;28;20144;-80
2024/03/25 03:39:50;;;;;;;21.63;7.88;;;;;;;4.10;89.91;100226.53;5058734;28;20076;-80
2024/03/25 03:42:15;;;;;;;24.85;8.88;;;;;;;4.10;90.52;100230.94;5054871;28;20081;-79
2024/03/25 03:44:44;;;;;;;33.17;9.10;;;;;;;4.08;90.78;100230.22;5057245;28;20056;-79
2024/03/25 03:47:12;;;;;;;25.60;10.07;;;;;;;4.04;90.21;100227.78;5057597;28;20081;-78
2024/03/25 03:49:39;;;;;;;23.35;7.22;;;;;;;4.07;90.12;100236.41;5057744;28;20416;-79
2024/03/25 03:52:06;;;;;;;27.58;7.13;;;;;;;4.03;90.18;100233.97;5060511;28;20045;-78
2024/03/25 03:54:33;;;;;;;23.92;7.25;;;;;;;4.01;90.38;100237.63;5058321;28;20072;-79
2024/03/25 03:56:58;;;;;;;28.02;6.63;;;;;;;4.02;90.16;100234.91;5066448;28;20072;-78
2024/03/25 03:59:25;;;;;;;23.20;7.03;;;;;;;3.96;90.32;100232.69;5061424;28;20041;-79
2024/03/25 04:01:51;;;;;;;21.73;7.13;;;;;;;3.83;90.62;100234.44;5056879;28;20064;-80
2024/03/25 04:04:17;;;;;;;22.95;6.97;;;;;;;3.75;91.29;100232.34;5060172;28;20471;-79
2024/03/25 04:06:43;;;;;;;21.08;7.53;;;;;;;3.78;91.18;100239.97;5065091;28;20057;-80
2024/03/25 04:09:11;;;;;;;24.30;7.07;;;;;;;3.67;91.31;100241.63;5055336;28;20064;-79
2024/03/25 04:11:36;;;;;;;26.13;6.93;;;;;;;3.62;91.64;100239.31;5058082;28;20056;-79
2024/03/25 04:14:03;;;;;;;28.88;7.30;;;;;;;3.55;91.97;100231.00;5058536;28;20041;-79
2024/03/25 04:16:30;;;;;;;29.40;7.20;;;;;;;3.58;91.90;100227.38;5056813;28;20045;-80
2024/03/25 04:18:57;;;;;;;20.90;6.13;;;;;;;3.54;92.42;100226.72;5056105;28;20131;-79
2024/03/25 04:21:23;;;;;;;27.45;7.43;;;;;;;3.55;92.28;100224.94;5056853;28;20513;-79
2024/03/25 04:23:50;;;;;;;27.63;7.20;;;;;;;3.48;92.70;100227.13;5057894;28;20053;-80
2024/03/25 04:26:17;;;;;;;24.50;7.10;;;;;;;3.42;92.33;100227.50;5057961;28;20053;-79
2024/03/25 04:28:43;;;;;;;20.02;6.38;;;;;;;3.36;92.67;100222.69;5055505;28;20088;-79
2024/03/25 04:31:09;;;;;;;24.10;8.40;;;;;;;3.29;92.87;100218.75;5056757;28;20091;-79
2024/03/25 04:33:36;;;;;;;21.48;7.05;;;;;;;3.21;92.90;100221.03;5052647;28;20120;-79
2024/03/25 04:36:02;;;;;;;17.33;6.68;;;;;;;3.19;93.02;100228.13;5057126;28;20072;-79
